sensor_id;sensor_type;location;lat;lon;timestamp;P1;durP1;ratioP1;P2;durP2;ratioP2
39880;SDS011;25554;44.954;10.068;2022-07-05T00:03:15;13.07;;;9.45;;
39880;SDS011;25554;44.954;10.068;2022-07-05T00:05:42;16.55;;;10.27;;
39880;SDS011;25554;44.954;10.068;2022-07-05T00:08:09;13.73;;;9.88;;
39880;SDS011;25554;44.954;10.068;2022-07-05T00:13:02;14.18;;;10.35;;
39880;SDS011;25554;44.954;10.068;2022-07-05T00:15:29;23.40;;;11.43;;
39880;SDS011;25554;44.954;10.068;2022-07-05T00:17:56;17.35;;;11.15;;
39880;SDS011;25554;44.954;10.068;2022-07-05T00:22:49;20.27;;;10.30;;
39880;SDS011;25554;44.954;10.068;2022-07-05T00:25:16;15.98;;;10.15;;
39880;SDS011;25554;44.954;10.068;2022-07-05T00:30:09;16.30;;;10.02;;
39880;SDS011;25554;44.954;10.068;2022-07-05T00:32:36;17.92;;;10.82;;
39880;SDS011;25554;44.954;10.068;2022-07-05T00:37:30;15.43;;;12.27;;
39880;SDS011;25554;44.954;10.068;2022-07-05T00:42:22;16.58;;;13.30;;
39880;SDS011;25554;44.954;10.068;2022-07-05T00:47:15;20.05;;;12.38;;
39880;SDS011;25554;44.954;10.068;2022-07-05T00:49:42;18.75;;;12.90;;
39880;SDS011;25554;44.954;10.068;2022-07-05T00:52:10;20.02;;;12.05;;
39880;SDS011;25554;44.954;10.068;2022-07-05T00:54:38;15.80;;;12.23;;
39880;SDS011;25554;44.954;10.068;2022-07-05T00:57:05;15.60;;;11.68;;
39880;SDS011;25554;44.954;10.068;2022-07-05T00:59:32;16.88;;;12.38;;
39880;SDS011;25554;44.954;10.068;2022-07-05T01:01:59;16.33;;;11.52;;
39880;SDS011;25554;44.954;10.068;2022-07-05T01:04:25;14.38;;;11.05;;
39880;SDS011;25554;44.954;10.068;2022-07-05T01:06:52;16.77;;;10.02;;
39880;SDS011;25554;44.954;10.068;2022-07-05T01:09:20;16.35;;;10.05;;
39880;SDS011;25554;44.954;10.068;2022-07-05T01:11:48;16.08;;;9.45;;
39880;SDS011;25554;44.954;10.068;2022-07-05T01:14:16;16.80;;;9.15;;
39880;SDS011;25554;44.954;10.068;2022-07-05T01:16:44;11.93;;;9.07;;
39880;SDS011;25554;44.954;10.068;2022-07-05T01:19:12;10.80;;;8.35;;
39880;SDS011;25554;44.954;10.068;2022-07-05T01:21:40;12.48;;;8.38;;
39880;SDS011;25554;44.954;10.068;2022-07-05T01:24:11;14.43;;;10.00;;
39880;SDS011;25554;44.954;10.068;2022-07-05T01:26:39;14.98;;;8.23;;
39880;SDS011;25554;44.954;10.068;2022-07-05T01:29:07;15.27;;;8.85;;
39880;SDS011;25554;44.954;10.068;2022-07-05T01:31:37;13.38;;;8.52;;
39880;SDS011;25554;44.954;10.068;2022-07-05T01:34:04;12.63;;;9.10;;
39880;SDS011;25554;44.954;10.068;2022-07-05T01:36:32;11.60;;;8.50;;
39880;SDS011;25554;44.954;10.068;2022-07-05T01:38:59;13.80;;;8.40;;
39880;SDS011;25554;44.954;10.068;2022-07-05T01:41:27;9.57;;;8.13;;
39880;SDS011;25554;44.954;10.068;2022-07-05T01:43:53;11.88;;;9.40;;
39880;SDS011;25554;44.954;10.068;2022-07-05T01:46:21;9.18;;;8.27;;
39880;SDS011;25554;44.954;10.068;2022-07-05T01:48:51;15.82;;;9.88;;
39880;SDS011;25554;44.954;10.068;2022-07-05T01:51:24;13.48;;;8.93;;
39880;SDS011;25554;44.954;10.068;2022-07-05T01:53:55;14.23;;;9.82;;
39880;SDS011;25554;44.954;10.068;2022-07-05T01:58:48;16.00;;;9.77;;
39880;SDS011;25554;44.954;10.068;2022-07-05T02:03:40;15.02;;;9.95;;
39880;SDS011;25554;44.954;10.068;2022-07-05T02:06:08;15.18;;;10.45;;
39880;SDS011;25554;44.954;10.068;2022-07-05T02:08:36;15.43;;;10.13;;
39880;SDS011;25554;44.954;10.068;2022-07-05T02:11:07;17.73;;;10.75;;
39880;SDS011;25554;44.954;10.068;2022-07-05T02:13:34;16.40;;;11.32;;
39880;SDS011;25554;44.954;10.068;2022-07-05T02:16:02;20.50;;;11.35;;
39880;SDS011;25554;44.954;10.068;2022-07-05T02:18:28;13.32;;;10.73;;
39880;SDS011;25554;44.954;10.068;2022-07-05T02:20:55;17.08;;;10.73;;
39880;SDS011;25554;44.954;10.068;2022-07-05T02:23:22;17.38;;;12.02;;
39880;SDS011;25554;44.954;10.068;2022-07-05T02:25:49;15.20;;;11.52;;
39880;SDS011;25554;44.954;10.068;2022-07-05T02:28:17;13.73;;;11.48;;
39880;SDS011;25554;44.954;10.068;2022-07-05T02:30:48;13.15;;;11.15;;
39880;SDS011;25554;44.954;10.068;2022-07-05T02:33:14;13.07;;;11.35;;
39880;SDS011;25554;44.954;10.068;2022-07-05T02:35:41;14.98;;;10.65;;
39880;SDS011;25554;44.954;10.068;2022-07-05T02:38:08;13.13;;;10.65;;
39880;SDS011;25554;44.954;10.068;2022-07-05T02:45:28;17.13;;;10.55;;
39880;SDS011;25554;44.954;10.068;2022-07-05T02:47:58;12.88;;;10.93;;
39880;SDS011;25554;44.954;10.068;2022-07-05T02:50:26;12.20;;;9.80;;
39880;SDS011;25554;44.954;10.068;2022-07-05T02:52:53;13.00;;;8.90;;
39880;SDS011;25554;44.954;10.068;2022-07-05T02:55:20;14.35;;;10.60;;
39880;SDS011;25554;44.954;10.068;2022-07-05T02:57:47;17.85;;;10.90;;
39880;SDS011;25554;44.954;10.068;2022-07-05T03:00:16;12.60;;;10.27;;
39880;SDS011;25554;44.954;10.068;2022-07-05T03:02:46;11.93;;;9.95;;
39880;SDS011;25554;44.954;10.068;2022-07-05T03:05:14;13.18;;;10.73;;
39880;SDS011;25554;44.954;10.068;2022-07-05T03:07:47;17.33;;;11.85;;
39880;SDS011;25554;44.954;10.068;2022-07-05T03:10:13;13.35;;;10.30;;
39880;SDS011;25554;44.954;10.068;2022-07-05T03:12:40;11.68;;;10.43;;
39880;SDS011;25554;44.954;10.068;2022-07-05T03:15:10;14.85;;;10.95;;
39880;SDS011;25554;44.954;10.068;2022-07-05T03:17:37;14.57;;;10.48;;
39880;SDS011;25554;44.954;10.068;2022-07-05T03:22:30;13.23;;;10.90;;
39880;SDS011;25554;44.954;10.068;2022-07-05T03:24:57;14.23;;;11.30;;
39880;SDS011;25554;44.954;10.068;2022-07-05T03:27:24;15.02;;;11.38;;
39880;SDS011;25554;44.954;10.068;2022-07-05T03:29:53;22.83;;;12.20;;
39880;SDS011;25554;44.954;10.068;2022-07-05T03:32:20;17.58;;;12.27;;
39880;SDS011;25554;44.954;10.068;2022-07-05T03:34:48;15.38;;;11.40;;
39880;SDS011;25554;44.954;10.068;2022-07-05T03:37:16;15.38;;;11.68;;
39880;SDS011;25554;44.954;10.068;2022-07-05T03:39:43;25.10;;;12.63;;
39880;SDS011;25554;44.954;10.068;2022-07-05T03:42:10;20.15;;;13.02;;
39880;SDS011;25554;44.954;10.068;2022-07-05T03:44:38;21.08;;;11.52;;
39880;SDS011;25554;44.954;10.068;2022-07-05T03:47:05;26.00;;;10.90;;
39880;SDS011;25554;44.954;10.068;2022-07-05T03:49:32;17.58;;;10.73;;
39880;SDS011;25554;44.954;10.068;2022-07-05T03:51:59;23.55;;;11.40;;
39880;SDS011;25554;44.954;10.068;2022-07-05T03:56:52;19.48;;;12.48;;
39880;SDS011;25554;44.954;10.068;2022-07-05T03:59:19;21.17;;;12.13;;
39880;SDS011;25554;44.954;10.068;2022-07-05T04:01:47;27.83;;;13.20;;
39880;SDS011;25554;44.954;10.068;2022-07-05T04:04:14;15.00;;;11.82;;
39880;SDS011;25554;44.954;10.068;2022-07-05T04:06:41;12.60;;;11.00;;
39880;SDS011;25554;44.954;10.068;2022-07-05T04:09:09;14.88;;;11.75;;
39880;SDS011;25554;44.954;10.068;2022-07-05T04:11:36;15.77;;;10.88;;
39880;SDS011;25554;44.954;10.068;2022-07-05T04:14:03;12.95;;;11.43;;
39880;SDS011;25554;44.954;10.068;2022-07-05T04:16:30;15.25;;;11.98;;
39880;SDS011;25554;44.954;10.068;2022-07-05T04:18:59;23.20;;;12.63;;
39880;SDS011;25554;44.954;10.068;2022-07-05T04:21:28;16.30;;;12.38;;
39880;SDS011;25554;44.954;10.068;2022-07-05T04:23:55;20.92;;;12.95;;
39880;SDS011;25554;44.954;10.068;2022-07-05T04:26:22;16.08;;;13.35;;
39880;SDS011;25554;44.954;10.068;2022-07-05T04:28:49;16.27;;;11.90;;
39880;SDS011;25554;44.954;10.068;2022-07-05T04:31:22;17.52;;;12.63;;
39880;SDS011;25554;44.954;10.068;2022-07-05T04:33:50;16.70;;;12.50;;
39880;SDS011;25554;44.954;10.068;2022-07-05T04:36:21;16.13;;;12.73;;
39880;SDS011;25554;44.954;10.068;2022-07-05T04:38:52;18.25;;;12.80;;
39880;SDS011;25554;44.954;10.068;2022-07-05T04:41:19;13.85;;;11.48;;
39880;SDS011;25554;44.954;10.068;2022-07-05T04:43:47;16.05;;;12.38;;
39880;SDS011;25554;44.954;10.068;2022-07-05T04:46:14;18.45;;;14.30;;
39880;SDS011;25554;44.954;10.068;2022-07-05T04:48:41;13.45;;;11.45;;
39880;SDS011;25554;44.954;10.068;2022-07-05T04:51:10;15.35;;;12.15;;
39880;SDS011;25554;44.954;10.068;2022-07-05T04:56:03;11.23;;;9.70;;
39880;SDS011;25554;44.954;10.068;2022-07-05T04:58:32;13.05;;;9.65;;
39880;SDS011;25554;44.954;10.068;2022-07-05T05:00:59;12.90;;;9.40;;
39880;SDS011;25554;44.954;10.068;2022-07-05T05:03:26;11.82;;;9.30;;
39880;SDS011;25554;44.954;10.068;2022-07-05T05:08:18;9.85;;;7.05;;
39880;SDS011;25554;44.954;10.068;2022-07-05T05:13:11;8.40;;;7.55;;
39880;SDS011;25554;44.954;10.068;2022-07-05T05:15:37;7.70;;;6.32;;
39880;SDS011;25554;44.954;10.068;2022-07-05T05:20:30;10.00;;;7.10;;
39880;SDS011;25554;44.954;10.068;2022-07-05T05:25:23;10.88;;;6.28;;
39880;SDS011;25554;44.954;10.068;2022-07-05T05:27:49;8.70;;;5.90;;
39880;SDS011;25554;44.954;10.068;2022-07-05T05:30:16;8.75;;;6.82;;
39880;SDS011;25554;44.954;10.068;2022-07-05T05:32:44;11.23;;;6.88;;
39880;SDS011;25554;44.954;10.068;2022-07-05T05:35:10;12.02;;;7.07;;
39880;SDS011;25554;44.954;10.068;2022-07-05T05:37:47;11.90;;;8.40;;
39880;SDS011;25554;44.954;10.068;2022-07-05T05:40:14;14.55;;;8.15;;
39880;SDS011;25554;44.954;10.068;2022-07-05T05:42:41;9.68;;;8.23;;
39880;SDS011;25554;44.954;10.068;2022-07-05T05:45:07;8.48;;;7.53;;
39880;SDS011;25554;44.954;10.068;2022-07-05T05:47:42;13.82;;;7.60;;
39880;SDS011;25554;44.954;10.068;2022-07-05T05:50:10;10.35;;;7.85;;
39880;SDS011;25554;44.954;10.068;2022-07-05T05:52:36;10.40;;;8.02;;
39880;SDS011;25554;44.954;10.068;2022-07-05T05:55:03;9.38;;;7.82;;
39880;SDS011;25554;44.954;10.068;2022-07-05T05:57:31;11.07;;;7.93;;
39880;SDS011;25554;44.954;10.068;2022-07-05T05:59:58;9.18;;;8.02;;
39880;SDS011;25554;44.954;10.068;2022-07-05T06:02:24;10.43;;;8.35;;
39880;SDS011;25554;44.954;10.068;2022-07-05T06:07:17;9.60;;;7.97;;
39880;SDS011;25554;44.954;10.068;2022-07-05T06:12:10;9.63;;;7.68;;
39880;SDS011;25554;44.954;10.068;2022-07-05T06:14:36;7.18;;;6.45;;
39880;SDS011;25554;44.954;10.068;2022-07-05T06:19:29;9.63;;;6.85;;
39880;SDS011;25554;44.954;10.068;2022-07-05T06:24:21;9.85;;;6.68;;
39880;SDS011;25554;44.954;10.068;2022-07-05T06:29:14;7.45;;;6.50;;
39880;SDS011;25554;44.954;10.068;2022-07-05T06:34:06;13.05;;;6.90;;
39880;SDS011;25554;44.954;10.068;2022-07-05T06:36:33;11.05;;;6.65;;
39880;SDS011;25554;44.954;10.068;2022-07-05T06:41:25;11.68;;;7.50;;
39880;SDS011;25554;44.954;10.068;2022-07-05T06:46:23;12.50;;;7.95;;
39880;SDS011;25554;44.954;10.068;2022-07-05T06:48:50;9.88;;;7.57;;
39880;SDS011;25554;44.954;10.068;2022-07-05T06:51:16;11.35;;;7.72;;
39880;SDS011;25554;44.954;10.068;2022-07-05T06:53:43;14.65;;;7.70;;
39880;SDS011;25554;44.954;10.068;2022-07-05T06:56:09;12.90;;;6.68;;
39880;SDS011;25554;44.954;10.068;2022-07-05T06:58:36;7.88;;;6.60;;
39880;SDS011;25554;44.954;10.068;2022-07-05T07:01:02;9.88;;;7.30;;
39880;SDS011;25554;44.954;10.068;2022-07-05T07:05:55;7.85;;;6.38;;
39880;SDS011;25554;44.954;10.068;2022-07-05T07:08:21;8.13;;;6.53;;
39880;SDS011;25554;44.954;10.068;2022-07-05T07:11:06;7.97;;;6.15;;
39880;SDS011;25554;44.954;10.068;2022-07-05T07:13:33;7.60;;;6.70;;
39880;SDS011;25554;44.954;10.068;2022-07-05T07:16:00;9.07;;;7.13;;
39880;SDS011;25554;44.954;10.068;2022-07-05T07:18:26;7.20;;;6.50;;
39880;SDS011;25554;44.954;10.068;2022-07-05T07:20:53;8.68;;;6.72;;
39880;SDS011;25554;44.954;10.068;2022-07-05T07:23:19;8.77;;;6.63;;
39880;SDS011;25554;44.954;10.068;2022-07-05T07:25:46;7.13;;;6.35;;
39880;SDS011;25554;44.954;10.068;2022-07-05T07:28:13;6.68;;;5.97;;
39880;SDS011;25554;44.954;10.068;2022-07-05T07:30:40;9.18;;;5.85;;
39880;SDS011;25554;44.954;10.068;2022-07-05T07:33:06;11.38;;;5.95;;
39880;SDS011;25554;44.954;10.068;2022-07-05T07:35:33;7.60;;;5.90;;
39880;SDS011;25554;44.954;10.068;2022-07-05T07:37:59;10.85;;;5.50;;
39880;SDS011;25554;44.954;10.068;2022-07-05T07:40:26;10.00;;;5.00;;
39880;SDS011;25554;44.954;10.068;2022-07-05T07:42:53;5.85;;;5.15;;
39880;SDS011;25554;44.954;10.068;2022-07-05T07:45:19;6.90;;;4.75;;
39880;SDS011;25554;44.954;10.068;2022-07-05T07:47:46;7.47;;;5.30;;
39880;SDS011;25554;44.954;10.068;2022-07-05T07:50:12;8.15;;;5.47;;
39880;SDS011;25554;44.954;10.068;2022-07-05T07:52:39;8.27;;;5.45;;
39880;SDS011;25554;44.954;10.068;2022-07-05T07:55:06;9.07;;;4.95;;
39880;SDS011;25554;44.954;10.068;2022-07-05T07:57:33;8.05;;;5.00;;
39880;SDS011;25554;44.954;10.068;2022-07-05T08:00:00;6.45;;;4.97;;
39880;SDS011;25554;44.954;10.068;2022-07-05T08:02:26;7.40;;;5.72;;
39880;SDS011;25554;44.954;10.068;2022-07-05T08:04:53;19.52;;;8.57;;
39880;SDS011;25554;44.954;10.068;2022-07-05T08:07:19;7.28;;;5.78;;
39880;SDS011;25554;44.954;10.068;2022-07-05T08:09:52;6.30;;;4.50;;
39880;SDS011;25554;44.954;10.068;2022-07-05T08:13:22;5.90;;;4.85;;
39880;SDS011;25554;44.954;10.068;2022-07-05T08:15:49;10.70;;;5.72;;
39880;SDS011;25554;44.954;10.068;2022-07-05T08:18:16;6.88;;;3.80;;
39880;SDS011;25554;44.954;10.068;2022-07-05T08:21:03;9.52;;;4.60;;
39880;SDS011;25554;44.954;10.068;2022-07-05T08:24:16;6.50;;;4.45;;
39880;SDS011;25554;44.954;10.068;2022-07-05T08:26:43;7.78;;;5.22;;
39880;SDS011;25554;44.954;10.068;2022-07-05T08:29:10;8.60;;;4.43;;
39880;SDS011;25554;44.954;10.068;2022-07-05T08:31:42;5.82;;;4.35;;
39880;SDS011;25554;44.954;10.068;2022-07-05T08:34:10;6.95;;;4.53;;
39880;SDS011;25554;44.954;10.068;2022-07-05T08:36:36;7.60;;;4.85;;
39880;SDS011;25554;44.954;10.068;2022-07-05T08:39:03;8.68;;;5.18;;
39880;SDS011;25554;44.954;10.068;2022-07-05T08:41:30;5.57;;;4.75;;
39880;SDS011;25554;44.954;10.068;2022-07-05T08:44:00;8.45;;;6.30;;
39880;SDS011;25554;44.954;10.068;2022-07-05T08:46:32;8.52;;;5.43;;
39880;SDS011;25554;44.954;10.068;2022-07-05T08:49:00;8.75;;;5.43;;
39880;SDS011;25554;44.954;10.068;2022-07-05T08:51:29;6.55;;;5.80;;
39880;SDS011;25554;44.954;10.068;2022-07-05T08:54:00;6.72;;;5.60;;
39880;SDS011;25554;44.954;10.068;2022-07-05T08:56:27;10.82;;;7.65;;
39880;SDS011;25554;44.954;10.068;2022-07-05T08:58:54;11.38;;;6.95;;
39880;SDS011;25554;44.954;10.068;2022-07-05T09:01:21;8.00;;;5.30;;
39880;SDS011;25554;44.954;10.068;2022-07-05T09:03:50;8.95;;;6.60;;
39880;SDS011;25554;44.954;10.068;2022-07-05T09:06:21;7.88;;;5.45;;
39880;SDS011;25554;44.954;10.068;2022-07-05T09:08:50;10.40;;;6.45;;
39880;SDS011;25554;44.954;10.068;2022-07-05T09:11:22;13.05;;;6.82;;
39880;SDS011;25554;44.954;10.068;2022-07-05T09:13:51;13.30;;;6.85;;
39880;SDS011;25554;44.954;10.068;2022-07-05T09:16:18;11.63;;;7.72;;
39880;SDS011;25554;44.954;10.068;2022-07-05T09:18:46;8.43;;;6.32;;
39880;SDS011;25554;44.954;10.068;2022-07-05T09:21:13;9.00;;;6.53;;
39880;SDS011;25554;44.954;10.068;2022-07-05T09:23:52;9.85;;;5.85;;
39880;SDS011;25554;44.954;10.068;2022-07-05T09:26:42;6.63;;;5.93;;
39880;SDS011;25554;44.954;10.068;2022-07-05T09:29:19;8.00;;;6.65;;
39880;SDS011;25554;44.954;10.068;2022-07-05T09:31:47;8.23;;;6.72;;
39880;SDS011;25554;44.954;10.068;2022-07-05T09:34:15;9.32;;;5.95;;
39880;SDS011;25554;44.954;10.068;2022-07-05T09:47:17;9.63;;;7.43;;
39880;SDS011;25554;44.954;10.068;2022-07-05T09:49:52;10.82;;;7.45;;
39880;SDS011;25554;44.954;10.068;2022-07-05T09:57:29;11.25;;;7.18;;
39880;SDS011;25554;44.954;10.068;2022-07-05T10:05:08;7.82;;;6.50;;
39880;SDS011;25554;44.954;10.068;2022-07-05T10:07:52;12.82;;;7.32;;
39880;SDS011;25554;44.954;10.068;2022-07-05T10:10:22;10.77;;;7.30;;
39880;SDS011;25554;44.954;10.068;2022-07-05T10:12:55;8.55;;;6.65;;
39880;SDS011;25554;44.954;10.068;2022-07-05T10:15:33;9.77;;;7.18;;
39880;SDS011;25554;44.954;10.068;2022-07-05T10:20:44;9.13;;;7.97;;
39880;SDS011;25554;44.954;10.068;2022-07-05T10:25:41;10.15;;;7.78;;
39880;SDS011;25554;44.954;10.068;2022-07-05T10:28:22;12.05;;;7.93;;
39880;SDS011;25554;44.954;10.068;2022-07-05T10:30:49;8.98;;;8.05;;
39880;SDS011;25554;44.954;10.068;2022-07-05T10:33:17;9.43;;;7.25;;
39880;SDS011;25554;44.954;10.068;2022-07-05T10:35:46;7.78;;;6.18;;
39880;SDS011;25554;44.954;10.068;2022-07-05T10:38:13;7.82;;;6.93;;
39880;SDS011;25554;44.954;10.068;2022-07-05T10:40:40;9.23;;;6.88;;
39880;SDS011;25554;44.954;10.068;2022-07-05T10:43:09;8.13;;;7.22;;
39880;SDS011;25554;44.954;10.068;2022-07-05T10:45:38;10.73;;;8.57;;
39880;SDS011;25554;44.954;10.068;2022-07-05T10:48:13;12.75;;;7.72;;
39880;SDS011;25554;44.954;10.068;2022-07-05T10:53:11;9.65;;;7.30;;
39880;SDS011;25554;44.954;10.068;2022-07-05T11:00:45;8.98;;;6.43;;
39880;SDS011;25554;44.954;10.068;2022-07-05T11:13:59;6.40;;;4.97;;
39880;SDS011;25554;44.954;10.068;2022-07-05T11:16:28;8.40;;;6.80;;
39880;SDS011;25554;44.954;10.068;2022-07-05T11:21:37;7.45;;;4.72;;
39880;SDS011;25554;44.954;10.068;2022-07-05T11:24:19;7.25;;;4.80;;
39880;SDS011;25554;44.954;10.068;2022-07-05T11:26:50;4.28;;;3.88;;
39880;SDS011;25554;44.954;10.068;2022-07-05T11:32:12;8.18;;;6.20;;
39880;SDS011;25554;44.954;10.068;2022-07-05T11:34:41;9.05;;;5.68;;
39880;SDS011;25554;44.954;10.068;2022-07-05T11:45:16;9.00;;;6.72;;
39880;SDS011;25554;44.954;10.068;2022-07-05T11:47:43;7.43;;;6.70;;
39880;SDS011;25554;44.954;10.068;2022-07-05T11:50:10;7.25;;;6.05;;
39880;SDS011;25554;44.954;10.068;2022-07-05T11:52:37;6.10;;;5.40;;
39880;SDS011;25554;44.954;10.068;2022-07-05T11:55:11;5.32;;;4.07;;
39880;SDS011;25554;44.954;10.068;2022-07-05T11:57:37;4.70;;;4.00;;
39880;SDS011;25554;44.954;10.068;2022-07-05T12:00:24;4.80;;;4.35;;
39880;SDS011;25554;44.954;10.068;2022-07-05T12:02:51;5.43;;;4.03;;
39880;SDS011;25554;44.954;10.068;2022-07-05T12:05:17;8.25;;;4.78;;
39880;SDS011;25554;44.954;10.068;2022-07-05T12:07:50;9.05;;;5.53;;
39880;SDS011;25554;44.954;10.068;2022-07-05T12:10:18;22.85;;;19.65;;
39880;SDS011;25554;44.954;10.068;2022-07-05T12:13:07;9.50;;;6.43;;
39880;SDS011;25554;44.954;10.068;2022-07-05T12:15:34;9.65;;;5.18;;
39880;SDS011;25554;44.954;10.068;2022-07-05T12:18:02;6.82;;;5.55;;
39880;SDS011;25554;44.954;10.068;2022-07-05T12:20:31;5.50;;;4.97;;
39880;SDS011;25554;44.954;10.068;2022-07-05T12:22:58;8.70;;;5.45;;
39880;SDS011;25554;44.954;10.068;2022-07-05T12:25:26;6.65;;;4.78;;
39880;SDS011;25554;44.954;10.068;2022-07-05T12:27:54;6.20;;;4.60;;
39880;SDS011;25554;44.954;10.068;2022-07-05T12:30:28;5.25;;;4.40;;
39880;SDS011;25554;44.954;10.068;2022-07-05T12:33:26;5.00;;;4.45;;
39880;SDS011;25554;44.954;10.068;2022-07-05T12:35:53;9.65;;;4.50;;
39880;SDS011;25554;44.954;10.068;2022-07-05T12:38:20;6.72;;;5.10;;
39880;SDS011;25554;44.954;10.068;2022-07-05T12:40:48;7.45;;;4.85;;
39880;SDS011;25554;44.954;10.068;2022-07-05T12:43:22;4.30;;;3.72;;
39880;SDS011;25554;44.954;10.068;2022-07-05T12:46:01;6.13;;;4.00;;
39880;SDS011;25554;44.954;10.068;2022-07-05T12:48:32;8.38;;;3.95;;
39880;SDS011;25554;44.954;10.068;2022-07-05T12:50:59;4.60;;;3.50;;
39880;SDS011;25554;44.954;10.068;2022-07-05T12:53:25;3.78;;;3.40;;
39880;SDS011;25554;44.954;10.068;2022-07-05T12:56:12;5.88;;;4.35;;
39880;SDS011;25554;44.954;10.068;2022-07-05T12:58:58;6.88;;;4.38;;
39880;SDS011;25554;44.954;10.068;2022-07-05T13:01:27;8.25;;;3.92;;
39880;SDS011;25554;44.954;10.068;2022-07-05T13:03:57;9.70;;;4.40;;
39880;SDS011;25554;44.954;10.068;2022-07-05T13:06:39;4.28;;;3.83;;
39880;SDS011;25554;44.954;10.068;2022-07-05T13:09:09;4.82;;;4.03;;
39880;SDS011;25554;44.954;10.068;2022-07-05T13:11:36;4.80;;;3.33;;
39880;SDS011;25554;44.954;10.068;2022-07-05T13:14:03;4.50;;;3.92;;
39880;SDS011;25554;44.954;10.068;2022-07-05T13:16:29;6.75;;;4.43;;
39880;SDS011;25554;44.954;10.068;2022-07-05T13:19:06;5.25;;;3.75;;
39880;SDS011;25554;44.954;10.068;2022-07-05T13:21:33;4.57;;;3.88;;
39880;SDS011;25554;44.954;10.068;2022-07-05T13:24:00;5.15;;;4.20;;
39880;SDS011;25554;44.954;10.068;2022-07-05T13:26:27;4.75;;;4.25;;
39880;SDS011;25554;44.954;10.068;2022-07-05T13:28:53;5.57;;;3.50;;
39880;SDS011;25554;44.954;10.068;2022-07-05T13:31:20;4.50;;;3.97;;
39880;SDS011;25554;44.954;10.068;2022-07-05T13:33:46;8.48;;;4.22;;
39880;SDS011;25554;44.954;10.068;2022-07-05T13:36:13;12.15;;;5.10;;
39880;SDS011;25554;44.954;10.068;2022-07-05T13:38:39;8.23;;;4.30;;
39880;SDS011;25554;44.954;10.068;2022-07-05T13:41:06;5.15;;;3.63;;
39880;SDS011;25554;44.954;10.068;2022-07-05T13:43:32;6.57;;;3.88;;
39880;SDS011;25554;44.954;10.068;2022-07-05T13:45:59;5.22;;;3.65;;
39880;SDS011;25554;44.954;10.068;2022-07-05T13:48:25;5.55;;;4.00;;
39880;SDS011;25554;44.954;10.068;2022-07-05T13:50:52;7.32;;;3.83;;
39880;SDS011;25554;44.954;10.068;2022-07-05T13:53:18;4.68;;;3.72;;
39880;SDS011;25554;44.954;10.068;2022-07-05T13:55:45;4.60;;;3.33;;
39880;SDS011;25554;44.954;10.068;2022-07-05T13:58:12;4.93;;;3.78;;
39880;SDS011;25554;44.954;10.068;2022-07-05T14:00:38;6.32;;;3.63;;
39880;SDS011;25554;44.954;10.068;2022-07-05T14:03:05;6.55;;;4.18;;
39880;SDS011;25554;44.954;10.068;2022-07-05T14:05:31;5.22;;;3.78;;
39880;SDS011;25554;44.954;10.068;2022-07-05T14:07:58;4.32;;;2.85;;
39880;SDS011;25554;44.954;10.068;2022-07-05T14:10:24;6.15;;;3.33;;
39880;SDS011;25554;44.954;10.068;2022-07-05T14:12:51;6.60;;;3.30;;
39880;SDS011;25554;44.954;10.068;2022-07-05T14:15:17;4.38;;;3.40;;
39880;SDS011;25554;44.954;10.068;2022-07-05T14:17:44;6.10;;;3.15;;
39880;SDS011;25554;44.954;10.068;2022-07-05T14:20:10;3.75;;;3.10;;
39880;SDS011;25554;44.954;10.068;2022-07-05T14:22:38;5.57;;;3.53;;
39880;SDS011;25554;44.954;10.068;2022-07-05T14:25:05;4.95;;;3.42;;
39880;SDS011;25554;44.954;10.068;2022-07-05T14:27:32;5.55;;;3.35;;
39880;SDS011;25554;44.954;10.068;2022-07-05T14:29:58;6.68;;;3.00;;
39880;SDS011;25554;44.954;10.068;2022-07-05T14:32:24;8.98;;;3.55;;
39880;SDS011;25554;44.954;10.068;2022-07-05T14:34:51;5.45;;;3.65;;
39880;SDS011;25554;44.954;10.068;2022-07-05T14:37:17;4.32;;;3.58;;
39880;SDS011;25554;44.954;10.068;2022-07-05T14:39:46;7.38;;;3.60;;
39880;SDS011;25554;44.954;10.068;2022-07-05T14:42:40;4.75;;;2.90;;
39880;SDS011;25554;44.954;10.068;2022-07-05T14:45:07;3.88;;;3.15;;
39880;SDS011;25554;44.954;10.068;2022-07-05T14:47:33;7.15;;;3.30;;
39880;SDS011;25554;44.954;10.068;2022-07-05T14:50:00;3.35;;;2.85;;
39880;SDS011;25554;44.954;10.068;2022-07-05T14:52:26;3.83;;;3.10;;
39880;SDS011;25554;44.954;10.068;2022-07-05T14:54:55;9.50;;;3.17;;
39880;SDS011;25554;44.954;10.068;2022-07-05T14:57:21;5.30;;;3.40;;
39880;SDS011;25554;44.954;10.068;2022-07-05T14:59:48;8.85;;;3.90;;
39880;SDS011;25554;44.954;10.068;2022-07-05T15:02:14;4.03;;;3.05;;
39880;SDS011;25554;44.954;10.068;2022-07-05T15:04:41;6.45;;;3.30;;
39880;SDS011;25554;44.954;10.068;2022-07-05T15:07:07;17.48;;;3.92;;
39880;SDS011;25554;44.954;10.068;2022-07-05T15:09:34;5.70;;;3.17;;
39880;SDS011;25554;44.954;10.068;2022-07-05T15:12:01;5.95;;;3.40;;
39880;SDS011;25554;44.954;10.068;2022-07-05T15:14:28;8.23;;;3.75;;
39880;SDS011;25554;44.954;10.068;2022-07-05T15:16:55;6.80;;;3.60;;
39880;SDS011;25554;44.954;10.068;2022-07-05T15:19:21;4.95;;;3.22;;
39880;SDS011;25554;44.954;10.068;2022-07-05T15:21:49;3.55;;;2.97;;
39880;SDS011;25554;44.954;10.068;2022-07-05T15:24:15;6.90;;;3.03;;
39880;SDS011;25554;44.954;10.068;2022-07-05T15:26:46;4.50;;;3.15;;
39880;SDS011;25554;44.954;10.068;2022-07-05T15:29:13;7.05;;;3.15;;
39880;SDS011;25554;44.954;10.068;2022-07-05T15:31:40;7.15;;;3.42;;
39880;SDS011;25554;44.954;10.068;2022-07-05T15:34:06;4.30;;;3.10;;
39880;SDS011;25554;44.954;10.068;2022-07-05T15:36:33;5.90;;;3.20;;
39880;SDS011;25554;44.954;10.068;2022-07-05T15:39:00;6.97;;;3.22;;
39880;SDS011;25554;44.954;10.068;2022-07-05T15:41:29;7.53;;;6.07;;
39880;SDS011;25554;44.954;10.068;2022-07-05T15:43:57;5.32;;;3.22;;
39880;SDS011;25554;44.954;10.068;2022-07-05T15:46:31;3.78;;;3.17;;
39880;SDS011;25554;44.954;10.068;2022-07-05T15:49:43;4.82;;;3.72;;
39880;SDS011;25554;44.954;10.068;2022-07-05T15:52:09;6.18;;;3.10;;
39880;SDS011;25554;44.954;10.068;2022-07-05T15:54:42;4.97;;;3.22;;
39880;SDS011;25554;44.954;10.068;2022-07-05T15:57:44;5.70;;;3.22;;
39880;SDS011;25554;44.954;10.068;2022-07-05T16:00:11;3.22;;;3.03;;
39880;SDS011;25554;44.954;10.068;2022-07-05T16:02:38;4.25;;;3.03;;
39880;SDS011;25554;44.954;10.068;2022-07-05T16:05:10;4.60;;;2.70;;
39880;SDS011;25554;44.954;10.068;2022-07-05T16:12:26;3.50;;;2.60;;
39880;SDS011;25554;44.954;10.068;2022-07-05T16:14:53;9.07;;;3.25;;
39880;SDS011;25554;44.954;10.068;2022-07-05T16:17:19;6.80;;;3.05;;
39880;SDS011;25554;44.954;10.068;2022-07-05T16:19:46;3.08;;;2.60;;
39880;SDS011;25554;44.954;10.068;2022-07-05T16:22:12;4.82;;;3.17;;
39880;SDS011;25554;44.954;10.068;2022-07-05T16:24:39;4.22;;;2.85;;
39880;SDS011;25554;44.954;10.068;2022-07-05T16:27:05;3.80;;;2.70;;
39880;SDS011;25554;44.954;10.068;2022-07-05T16:29:32;4.50;;;3.28;;
39880;SDS011;25554;44.954;10.068;2022-07-05T16:31:58;4.07;;;3.22;;
39880;SDS011;25554;44.954;10.068;2022-07-05T16:34:25;3.85;;;2.67;;
39880;SDS011;25554;44.954;10.068;2022-07-05T16:36:51;4.57;;;2.90;;
39880;SDS011;25554;44.954;10.068;2022-07-05T16:39:18;3.35;;;2.92;;
39880;SDS011;25554;44.954;10.068;2022-07-05T16:41:44;2.88;;;2.55;;
39880;SDS011;25554;44.954;10.068;2022-07-05T16:44:11;4.65;;;3.03;;